sensor_id;sensor_type;location;lat;lon;timestamp;P1;durP1;ratioP1;P2;durP2;ratioP2
32080;SDS011;18593;51.426;7.030;2022-12-01T00:01:00;46.65;;;20.33;;
32080;SDS011;18593;51.426;7.030;2022-12-01T00:03:28;47.47;;;20.33;;
32080;SDS011;18593;51.426;7.030;2022-12-01T00:05:58;46.25;;;21.08;;
32080;SDS011;18593;51.426;7.030;2022-12-01T00:08:26;45.63;;;19.90;;
32080;SDS011;18593;51.426;7.030;2022-12-01T00:10:54;48.40;;;20.88;;
32080;SDS011;18593;51.426;7.030;2022-12-01T00:13:22;44.63;;;21.35;;
32080;SDS011;18593;51.426;7.030;2022-12-01T00:15:49;62.35;;;23.42;;
32080;SDS011;18593;51.426;7.030;2022-12-01T00:18:15;43.10;;;20.83;;
32080;SDS011;18593;51.426;7.030;2022-12-01T00:20:42;51.55;;;21.83;;
32080;SDS011;18593;51.426;7.030;2022-12-01T00:23:09;44.00;;;20.42;;
32080;SDS011;18593;51.426;7.030;2022-12-01T00:25:36;47.92;;;21.63;;
32080;SDS011;18593;51.426;7.030;2022-12-01T00:28:03;45.50;;;20.98;;
32080;SDS011;18593;51.426;7.030;2022-12-01T00:30:31;55.55;;;22.60;;
32080;SDS011;18593;51.426;7.030;2022-12-01T00:32:58;50.47;;;22.88;;
32080;SDS011;18593;51.426;7.030;2022-12-01T00:35:25;49.28;;;22.83;;
32080;SDS011;18593;51.426;7.030;2022-12-01T00:37:52;50.80;;;22.65;;
32080;SDS011;18593;51.426;7.030;2022-12-01T00:40:19;56.70;;;23.38;;
32080;SDS011;18593;51.426;7.030;2022-12-01T00:42:46;54.85;;;23.98;;
32080;SDS011;18593;51.426;7.030;2022-12-01T00:45:13;68.47;;;26.33;;
32080;SDS011;18593;51.426;7.030;2022-12-01T00:47:41;57.03;;;24.80;;
32080;SDS011;18593;51.426;7.030;2022-12-01T00:50:08;57.40;;;26.02;;
32080;SDS011;18593;51.426;7.030;2022-12-01T00:52:36;65.28;;;25.17;;
32080;SDS011;18593;51.426;7.030;2022-12-01T00:55:03;77.38;;;27.77;;
32080;SDS011;18593;51.426;7.030;2022-12-01T00:57:33;66.43;;;25.85;;
32080;SDS011;18593;51.426;7.030;2022-12-01T01:00:00;88.30;;;27.40;;
32080;SDS011;18593;51.426;7.030;2022-12-01T01:02:27;76.55;;;26.70;;
32080;SDS011;18593;51.426;7.030;2022-12-01T01:04:55;68.15;;;27.05;;
32080;SDS011;18593;51.426;7.030;2022-12-01T01:07:22;70.72;;;26.83;;
32080;SDS011;18593;51.426;7.030;2022-12-01T01:09:49;69.80;;;26.38;;
32080;SDS011;18593;51.426;7.030;2022-12-01T01:12:16;61.38;;;26.27;;
32080;SDS011;18593;51.426;7.030;2022-12-01T01:14:45;60.70;;;25.65;;
32080;SDS011;18593;51.426;7.030;2022-12-01T01:17:12;67.68;;;27.85;;
32080;SDS011;18593;51.426;7.030;2022-12-01T01:19:39;72.07;;;26.13;;
32080;SDS011;18593;51.426;7.030;2022-12-01T01:22:07;66.90;;;26.05;;
32080;SDS011;18593;51.426;7.030;2022-12-01T01:24:35;81.47;;;27.50;;
32080;SDS011;18593;51.426;7.030;2022-12-01T01:27:02;81.25;;;28.58;;
32080;SDS011;18593;51.426;7.030;2022-12-01T01:29:30;67.28;;;26.45;;
32080;SDS011;18593;51.426;7.030;2022-12-01T01:31:57;68.38;;;26.77;;
32080;SDS011;18593;51.426;7.030;2022-12-01T01:34:24;88.57;;;28.48;;
32080;SDS011;18593;51.426;7.030;2022-12-01T01:36:50;88.40;;;27.63;;
32080;SDS011;18593;51.426;7.030;2022-12-01T01:39:19;78.97;;;28.38;;
32080;SDS011;18593;51.426;7.030;2022-12-01T01:41:46;69.97;;;26.83;;
32080;SDS011;18593;51.426;7.030;2022-12-01T01:46:51;81.20;;;28.90;;
32080;SDS011;18593;51.426;7.030;2022-12-01T01:49:18;66.80;;;26.17;;
32080;SDS011;18593;51.426;7.030;2022-12-01T01:51:45;91.75;;;29.08;;
32080;SDS011;18593;51.426;7.030;2022-12-01T01:54:15;92.18;;;30.05;;
32080;SDS011;18593;51.426;7.030;2022-12-01T01:59:30;76.57;;;27.80;;
32080;SDS011;18593;51.426;7.030;2022-12-01T02:02:01;82.80;;;28.90;;
32080;SDS011;18593;51.426;7.030;2022-12-01T02:04:30;97.78;;;30.00;;
32080;SDS011;18593;51.426;7.030;2022-12-01T02:06:58;76.90;;;27.10;;
32080;SDS011;18593;51.426;7.030;2022-12-01T02:09:29;91.35;;;28.65;;
32080;SDS011;18593;51.426;7.030;2022-12-01T02:11:59;88.45;;;29.92;;
32080;SDS011;18593;51.426;7.030;2022-12-01T02:14:41;91.03;;;29.90;;
32080;SDS011;18593;51.426;7.030;2022-12-01T02:17:22;72.38;;;26.70;;
32080;SDS011;18593;51.426;7.030;2022-12-01T02:20:14;78.18;;;27.25;;
32080;SDS011;18593;51.426;7.030;2022-12-01T02:22:55;64.30;;;25.98;;
32080;SDS011;18593;51.426;7.030;2022-12-01T02:25:40;77.47;;;26.23;;
32080;SDS011;18593;51.426;7.030;2022-12-01T02:31:11;78.65;;;27.15;;
32080;SDS011;18593;51.426;7.030;2022-12-01T02:33:41;66.10;;;26.75;;
32080;SDS011;18593;51.426;7.030;2022-12-01T02:36:14;63.33;;;25.23;;
32080;SDS011;18593;51.426;7.030;2022-12-01T02:38:44;72.38;;;25.80;;
32080;SDS011;18593;51.426;7.030;2022-12-01T02:41:15;76.38;;;27.05;;
32080;SDS011;18593;51.426;7.030;2022-12-01T02:43:45;70.88;;;27.13;;
32080;SDS011;18593;51.426;7.030;2022-12-01T02:46:21;85.20;;;31.65;;
32080;SDS011;18593;51.426;7.030;2022-12-01T02:48:51;77.93;;;28.92;;
32080;SDS011;18593;51.426;7.030;2022-12-01T02:51:20;84.10;;;28.70;;
32080;SDS011;18593;51.426;7.030;2022-12-01T02:53:50;78.43;;;28.35;;
32080;SDS011;18593;51.426;7.030;2022-12-01T02:56:19;75.88;;;28.70;;
32080;SDS011;18593;51.426;7.030;2022-12-01T02:58:46;74.38;;;28.85;;
32080;SDS011;18593;51.426;7.030;2022-12-01T03:01:26;79.40;;;28.33;;
32080;SDS011;18593;51.426;7.030;2022-12-01T03:04:06;78.15;;;28.85;;
32080;SDS011;18593;51.426;7.030;2022-12-01T03:06:45;68.05;;;27.08;;
32080;SDS011;18593;51.426;7.030;2022-12-01T03:09:23;73.55;;;27.05;;
32080;SDS011;18593;51.426;7.030;2022-12-01T03:11:55;70.72;;;25.98;;
32080;SDS011;18593;51.426;7.030;2022-12-01T03:14:30;65.85;;;25.88;;
32080;SDS011;18593;51.426;7.030;2022-12-01T03:17:02;57.58;;;24.58;;
32080;SDS011;18593;51.426;7.030;2022-12-01T03:19:33;57.05;;;23.73;;
32080;SDS011;18593;51.426;7.030;2022-12-01T03:22:03;52.10;;;23.73;;
32080;SDS011;18593;51.426;7.030;2022-12-01T03:24:37;59.38;;;24.73;;
32080;SDS011;18593;51.426;7.030;2022-12-01T03:27:07;52.60;;;22.90;;
32080;SDS011;18593;51.426;7.030;2022-12-01T03:29:35;56.70;;;23.98;;
32080;SDS011;18593;51.426;7.030;2022-12-01T03:32:07;50.55;;;22.23;;
32080;SDS011;18593;51.426;7.030;2022-12-01T03:34:38;57.25;;;23.38;;
32080;SDS011;18593;51.426;7.030;2022-12-01T03:37:08;57.13;;;23.17;;
32080;SDS011;18593;51.426;7.030;2022-12-01T03:39:38;49.10;;;22.05;;
32080;SDS011;18593;51.426;7.030;2022-12-01T03:42:06;55.80;;;23.02;;
32080;SDS011;18593;51.426;7.030;2022-12-01T03:44:38;62.25;;;24.67;;
32080;SDS011;18593;51.426;7.030;2022-12-01T03:47:11;55.03;;;22.83;;
32080;SDS011;18593;51.426;7.030;2022-12-01T03:49:39;55.50;;;22.83;;
32080;SDS011;18593;51.426;7.030;2022-12-01T03:52:09;60.30;;;23.48;;
32080;SDS011;18593;51.426;7.030;2022-12-01T03:54:44;51.97;;;22.23;;
32080;SDS011;18593;51.426;7.030;2022-12-01T03:57:16;51.97;;;21.95;;
32080;SDS011;18593;51.426;7.030;2022-12-01T03:59:45;50.42;;;22.17;;
32080;SDS011;18593;51.426;7.030;2022-12-01T04:02:14;57.25;;;22.98;;
32080;SDS011;18593;51.426;7.030;2022-12-01T04:04:42;51.22;;;22.25;;
32080;SDS011;18593;51.426;7.030;2022-12-01T04:07:09;47.67;;;20.85;;
32080;SDS011;18593;51.426;7.030;2022-12-01T04:09:37;48.40;;;21.45;;
32080;SDS011;18593;51.426;7.030;2022-12-01T04:12:05;48.80;;;21.73;;
32080;SDS011;18593;51.426;7.030;2022-12-01T04:14:50;55.40;;;22.13;;
32080;SDS011;18593;51.426;7.030;2022-12-01T04:17:18;47.95;;;21.30;;
32080;SDS011;18593;51.426;7.030;2022-12-01T04:19:45;48.22;;;21.38;;
32080;SDS011;18593;51.426;7.030;2022-12-01T04:22:12;44.45;;;20.27;;
32080;SDS011;18593;51.426;7.030;2022-12-01T04:24:39;45.35;;;20.77;;
32080;SDS011;18593;51.426;7.030;2022-12-01T04:27:06;48.33;;;20.92;;
32080;SDS011;18593;51.426;7.030;2022-12-01T04:29:33;46.20;;;20.25;;
32080;SDS011;18593;51.426;7.030;2022-12-01T04:32:00;49.75;;;21.77;;
32080;SDS011;18593;51.426;7.030;2022-12-01T04:34:28;51.33;;;20.48;;
32080;SDS011;18593;51.426;7.030;2022-12-01T04:36:55;50.92;;;21.38;;
32080;SDS011;18593;51.426;7.030;2022-12-01T04:39:22;50.92;;;22.05;;
32080;SDS011;18593;51.426;7.030;2022-12-01T04:41:49;51.33;;;21.75;;
32080;SDS011;18593;51.426;7.030;2022-12-01T04:44:16;47.55;;;20.38;;
32080;SDS011;18593;51.426;7.030;2022-12-01T04:46:43;51.63;;;21.60;;
32080;SDS011;18593;51.426;7.030;2022-12-01T04:49:10;47.40;;;20.45;;
32080;SDS011;18593;51.426;7.030;2022-12-01T04:51:38;52.45;;;21.95;;
32080;SDS011;18593;51.426;7.030;2022-12-01T04:54:05;45.45;;;20.20;;
32080;SDS011;18593;51.426;7.030;2022-12-01T04:56:32;49.53;;;21.40;;
32080;SDS011;18593;51.426;7.030;2022-12-01T04:58:59;55.05;;;22.10;;
32080;SDS011;18593;51.426;7.030;2022-12-01T05:01:26;49.63;;;21.42;;
32080;SDS011;18593;51.426;7.030;2022-12-01T05:03:53;52.85;;;21.90;;
32080;SDS011;18593;51.426;7.030;2022-12-01T05:06:21;46.28;;;20.98;;
32080;SDS011;18593;51.426;7.030;2022-12-01T05:08:50;49.05;;;21.13;;
32080;SDS011;18593;51.426;7.030;2022-12-01T05:11:17;50.33;;;21.20;;
32080;SDS011;18593;51.426;7.030;2022-12-01T05:13:45;61.30;;;23.45;;
32080;SDS011;18593;51.426;7.030;2022-12-01T05:16:14;52.38;;;22.67;;
32080;SDS011;18593;51.426;7.030;2022-12-01T05:18:42;55.67;;;22.27;;
32080;SDS011;18593;51.426;7.030;2022-12-01T05:21:12;43.60;;;20.05;;
32080;SDS011;18593;51.426;7.030;2022-12-01T05:23:38;53.15;;;22.70;;
32080;SDS011;18593;51.426;7.030;2022-12-01T05:26:07;48.85;;;22.52;;
32080;SDS011;18593;51.426;7.030;2022-12-01T05:28:34;57.13;;;23.10;;
32080;SDS011;18593;51.426;7.030;2022-12-01T05:31:02;54.13;;;22.88;;
32080;SDS011;18593;51.426;7.030;2022-12-01T05:33:29;54.67;;;22.98;;
32080;SDS011;18593;51.426;7.030;2022-12-01T05:35:56;56.90;;;22.50;;
32080;SDS011;18593;51.426;7.030;2022-12-01T05:38:23;52.70;;;23.58;;
32080;SDS011;18593;51.426;7.030;2022-12-01T05:40:50;53.28;;;23.13;;
32080;SDS011;18593;51.426;7.030;2022-12-01T05:43:20;49.40;;;22.25;;
32080;SDS011;18593;51.426;7.030;2022-12-01T05:45:47;51.58;;;22.20;;
32080;SDS011;18593;51.426;7.030;2022-12-01T05:48:15;51.15;;;22.80;;
32080;SDS011;18593;51.426;7.030;2022-12-01T05:50:42;53.80;;;24.08;;
32080;SDS011;18593;51.426;7.030;2022-12-01T05:53:11;47.38;;;21.23;;
32080;SDS011;18593;51.426;7.030;2022-12-01T05:55:39;51.28;;;21.73;;
32080;SDS011;18593;51.426;7.030;2022-12-01T05:58:06;46.95;;;21.00;;
32080;SDS011;18593;51.426;7.030;2022-12-01T06:00:35;54.00;;;22.83;;
32080;SDS011;18593;51.426;7.030;2022-12-01T06:03:02;49.22;;;21.33;;
32080;SDS011;18593;51.426;7.030;2022-12-01T06:05:30;48.50;;;20.63;;
32080;SDS011;18593;51.426;7.030;2022-12-01T06:07:57;44.47;;;20.65;;
32080;SDS011;18593;51.426;7.030;2022-12-01T06:10:24;51.95;;;22.80;;
32080;SDS011;18593;51.426;7.030;2022-12-01T06:12:51;49.25;;;21.90;;
32080;SDS011;18593;51.426;7.030;2022-12-01T06:15:17;49.83;;;21.33;;
32080;SDS011;18593;51.426;7.030;2022-12-01T06:17:46;42.92;;;19.63;;
32080;SDS011;18593;51.426;7.030;2022-12-01T06:20:13;57.20;;;22.35;;
32080;SDS011;18593;51.426;7.030;2022-12-01T06:22:40;49.80;;;22.27;;
32080;SDS011;18593;51.426;7.030;2022-12-01T06:25:07;44.00;;;20.05;;
32080;SDS011;18593;51.426;7.030;2022-12-01T06:27:34;48.05;;;21.77;;
32080;SDS011;18593;51.426;7.030;2022-12-01T06:30:02;52.22;;;21.60;;
32080;SDS011;18593;51.426;7.030;2022-12-01T06:32:30;55.67;;;24.40;;
32080;SDS011;18593;51.426;7.030;2022-12-01T06:34:58;53.67;;;22.55;;
32080;SDS011;18593;51.426;7.030;2022-12-01T06:37:25;53.03;;;23.55;;
32080;SDS011;18593;51.426;7.030;2022-12-01T06:39:52;51.08;;;22.25;;
32080;SDS011;18593;51.426;7.030;2022-12-01T06:42:19;50.42;;;21.08;;
32080;SDS011;18593;51.426;7.030;2022-12-01T06:44:46;52.05;;;23.73;;
32080;SDS011;18593;51.426;7.030;2022-12-01T06:47:13;59.38;;;26.17;;
32080;SDS011;18593;51.426;7.030;2022-12-01T06:49:41;54.72;;;24.63;;
32080;SDS011;18593;51.426;7.030;2022-12-01T06:52:09;54.17;;;24.27;;
32080;SDS011;18593;51.426;7.030;2022-12-01T06:54:36;57.78;;;25.17;;
32080;SDS011;18593;51.426;7.030;2022-12-01T06:57:03;59.10;;;24.80;;
32080;SDS011;18593;51.426;7.030;2022-12-01T06:59:31;54.58;;;24.63;;
32080;SDS011;18593;51.426;7.030;2022-12-01T07:01:58;57.63;;;25.50;;
32080;SDS011;18593;51.426;7.030;2022-12-01T07:04:25;57.80;;;25.05;;
32080;SDS011;18593;51.426;7.030;2022-12-01T07:06:52;53.95;;;23.55;;
32080;SDS011;18593;51.426;7.030;2022-12-01T07:09:21;59.28;;;25.25;;
32080;SDS011;18593;51.426;7.030;2022-12-01T07:11:48;59.83;;;25.63;;
32080;SDS011;18593;51.426;7.030;2022-12-01T07:14:15;66.07;;;26.10;;
32080;SDS011;18593;51.426;7.030;2022-12-01T07:16:44;63.55;;;26.85;;
32080;SDS011;18593;51.426;7.030;2022-12-01T07:19:11;68.63;;;27.17;;
32080;SDS011;18593;51.426;7.030;2022-12-01T07:21:37;61.15;;;26.30;;
32080;SDS011;18593;51.426;7.030;2022-12-01T07:24:05;60.90;;;25.08;;
32080;SDS011;18593;51.426;7.030;2022-12-01T07:26:33;64.88;;;26.48;;
32080;SDS011;18593;51.426;7.030;2022-12-01T07:29:00;71.22;;;27.35;;
32080;SDS011;18593;51.426;7.030;2022-12-01T07:31:27;63.72;;;26.90;;
32080;SDS011;18593;51.426;7.030;2022-12-01T07:33:55;64.78;;;26.55;;
32080;SDS011;18593;51.426;7.030;2022-12-01T07:36:22;70.47;;;27.17;;
32080;SDS011;18593;51.426;7.030;2022-12-01T07:38:48;63.30;;;26.90;;
32080;SDS011;18593;51.426;7.030;2022-12-01T07:41:16;65.82;;;27.73;;
32080;SDS011;18593;51.426;7.030;2022-12-01T07:43:45;64.53;;;26.63;;
32080;SDS011;18593;51.426;7.030;2022-12-01T07:46:13;65.03;;;25.55;;
32080;SDS011;18593;51.426;7.030;2022-12-01T07:48:42;60.90;;;28.02;;
32080;SDS011;18593;51.426;7.030;2022-12-01T07:51:09;61.65;;;26.80;;
32080;SDS011;18593;51.426;7.030;2022-12-01T07:53:37;56.33;;;25.58;;
32080;SDS011;18593;51.426;7.030;2022-12-01T07:56:04;65.65;;;27.63;;
32080;SDS011;18593;51.426;7.030;2022-12-01T07:58:31;70.30;;;27.50;;
32080;SDS011;18593;51.426;7.030;2022-12-01T08:01:03;60.75;;;26.98;;
32080;SDS011;18593;51.426;7.030;2022-12-01T08:03:31;69.85;;;27.30;;
32080;SDS011;18593;51.426;7.030;2022-12-01T08:05:58;68.57;;;27.63;;
32080;SDS011;18593;51.426;7.030;2022-12-01T08:08:26;69.28;;;28.75;;
32080;SDS011;18593;51.426;7.030;2022-12-01T08:10:53;69.57;;;28.40;;
32080;SDS011;18593;51.426;7.030;2022-12-01T08:13:27;64.85;;;26.98;;
32080;SDS011;18593;51.426;7.030;2022-12-01T08:15:54;64.07;;;27.45;;
32080;SDS011;18593;51.426;7.030;2022-12-01T08:18:23;59.25;;;25.73;;
32080;SDS011;18593;51.426;7.030;2022-12-01T08:20:50;59.67;;;26.48;;
32080;SDS011;18593;51.426;7.030;2022-12-01T08:23:17;62.92;;;27.20;;
32080;SDS011;18593;51.426;7.030;2022-12-01T08:25:44;65.55;;;29.10;;
32080;SDS011;18593;51.426;7.030;2022-12-01T08:28:10;68.40;;;29.02;;
32080;SDS011;18593;51.426;7.030;2022-12-01T08:30:37;68.25;;;30.02;;
32080;SDS011;18593;51.426;7.030;2022-12-01T08:33:04;63.63;;;26.65;;
32080;SDS011;18593;51.426;7.030;2022-12-01T08:35:37;66.80;;;27.52;;
32080;SDS011;18593;51.426;7.030;2022-12-01T08:38:04;66.55;;;28.58;;
32080;SDS011;18593;51.426;7.030;2022-12-01T08:40:31;68.45;;;28.95;;
32080;SDS011;18593;51.426;7.030;2022-12-01T08:42:58;72.32;;;29.05;;
32080;SDS011;18593;51.426;7.030;2022-12-01T08:45:25;69.60;;;28.63;;
32080;SDS011;18593;51.426;7.030;2022-12-01T08:47:52;73.03;;;29.05;;
32080;SDS011;18593;51.426;7.030;2022-12-01T08:50:22;68.07;;;28.48;;
32080;SDS011;18593;51.426;7.030;2022-12-01T08:52:51;71.22;;;28.52;;
32080;SDS011;18593;51.426;7.030;2022-12-01T08:55:18;64.05;;;26.70;;
32080;SDS011;18593;51.426;7.030;2022-12-01T08:57:46;64.40;;;28.23;;
32080;SDS011;18593;51.426;7.030;2022-12-01T09:00:13;62.53;;;27.08;;
32080;SDS011;18593;51.426;7.030;2022-12-01T09:02:41;61.10;;;26.60;;
32080;SDS011;18593;51.426;7.030;2022-12-01T09:05:08;72.88;;;27.83;;
32080;SDS011;18593;51.426;7.030;2022-12-01T09:07:35;62.70;;;26.02;;
32080;SDS011;18593;51.426;7.030;2022-12-01T09:10:04;60.60;;;25.85;;
32080;SDS011;18593;51.426;7.030;2022-12-01T09:12:32;64.43;;;28.17;;
32080;SDS011;18593;51.426;7.030;2022-12-01T09:14:59;62.72;;;25.63;;
32080;SDS011;18593;51.426;7.030;2022-12-01T09:17:26;59.85;;;25.15;;
32080;SDS011;18593;51.426;7.030;2022-12-01T09:19:54;63.17;;;26.15;;
32080;SDS011;18593;51.426;7.030;2022-12-01T09:22:21;65.28;;;27.17;;
32080;SDS011;18593;51.426;7.030;2022-12-01T09:24:48;67.70;;;25.30;;
32080;SDS011;18593;51.426;7.030;2022-12-01T09:27:16;65.45;;;25.38;;
32080;SDS011;18593;51.426;7.030;2022-12-01T09:29:45;62.60;;;25.02;;
32080;SDS011;18593;51.426;7.030;2022-12-01T09:32:12;54.75;;;23.98;;
32080;SDS011;18593;51.426;7.030;2022-12-01T09:34:39;62.95;;;24.98;;
32080;SDS011;18593;51.426;7.030;2022-12-01T09:37:06;56.85;;;23.20;;
32080;SDS011;18593;51.426;7.030;2022-12-01T09:39:33;61.85;;;24.80;;
32080;SDS011;18593;51.426;7.030;2022-12-01T09:42:01;50.97;;;22.42;;
32080;SDS011;18593;51.426;7.030;2022-12-01T09:44:33;56.10;;;22.20;;
32080;SDS011;18593;51.426;7.030;2022-12-01T09:47:05;53.53;;;21.98;;
32080;SDS011;18593;51.426;7.030;2022-12-01T09:49:45;59.17;;;23.35;;
32080;SDS011;18593;51.426;7.030;2022-12-01T09:52:16;50.30;;;20.73;;
32080;SDS011;18593;51.426;7.030;2022-12-01T09:54:44;52.67;;;21.27;;
32080;SDS011;18593;51.426;7.030;2022-12-01T09:57:13;50.70;;;21.33;;
32080;SDS011;18593;51.426;7.030;2022-12-01T09:59:44;46.80;;;21.08;;
32080;SDS011;18593;51.426;7.030;2022-12-01T10:02:26;46.20;;;19.73;;
32080;SDS011;18593;51.426;7.030;2022-12-01T10:04:58;48.50;;;20.30;;
32080;SDS011;18593;51.426;7.030;2022-12-01T10:07:29;49.67;;;20.02;;
32080;SDS011;18593;51.426;7.030;2022-12-01T10:10:00;47.33;;;20.77;;
32080;SDS011;18593;51.426;7.030;2022-12-01T10:12:30;48.33;;;20.35;;
32080;SDS011;18593;51.426;7.030;2022-12-01T10:15:04;41.97;;;19.80;;
32080;SDS011;18593;51.426;7.030;2022-12-01T10:17:48;45.17;;;21.45;;
32080;SDS011;18593;51.426;7.030;2022-12-01T10:20:21;42.17;;;19.80;;
32080;SDS011;18593;51.426;7.030;2022-12-01T10:22:55;44.03;;;19.58;;
32080;SDS011;18593;51.426;7.030;2022-12-01T10:25:43;41.10;;;18.08;;
32080;SDS011;18593;51.426;7.030;2022-12-01T10:28:42;42.70;;;19.92;;
32080;SDS011;18593;51.426;7.030;2022-12-01T10:31:18;41.10;;;19.77;;
32080;SDS011;18593;51.426;7.030;2022-12-01T10:33:49;39.13;;;18.85;;
32080;SDS011;18593;51.426;7.030;2022-12-01T10:36:23;41.58;;;19.63;;
32080;SDS011;18593;51.426;7.030;2022-12-01T10:38:50;42.70;;;19.98;;
32080;SDS011;18593;51.426;7.030;2022-12-01T10:41:17;47.90;;;21.45;;
32080;SDS011;18593;51.426;7.030;2022-12-01T10:43:46;46.47;;;19.70;;
32080;SDS011;18593;51.426;7.030;2022-12-01T10:46:20;46.00;;;21.25;;
32080;SDS011;18593;51.426;7.030;2022-12-01T10:48:53;49.30;;;21.45;;
32080;SDS011;18593;51.426;7.030;2022-12-01T10:51:21;44.28;;;20.45;;
32080;SDS011;18593;51.426;7.030;2022-12-01T10:53:48;45.63;;;21.35;;
32080;SDS011;18593;51.426;7.030;2022-12-01T10:56:16;47.00;;;22.15;;
32080;SDS011;18593;51.426;7.030;2022-12-01T10:58:46;42.53;;;20.25;;
32080;SDS011;18593;51.426;7.030;2022-12-01T11:01:15;45.90;;;20.85;;
32080;SDS011;18593;51.426;7.030;2022-12-01T11:03:49;47.00;;;21.63;;
32080;SDS011;18593;51.426;7.030;2022-12-01T11:06:21;45.55;;;22.02;;
32080;SDS011;18593;51.426;7.030;2022-12-01T11:08:51;41.58;;;21.15;;
32080;SDS011;18593;51.426;7.030;2022-12-01T11:11:22;43.88;;;21.98;;
32080;SDS011;18593;51.426;7.030;2022-12-01T11:14:00;47.80;;;21.52;;
32080;SDS011;18593;51.426;7.030;2022-12-01T11:16:35;44.60;;;22.60;;
32080;SDS011;18593;51.426;7.030;2022-12-01T11:19:16;51.13;;;22.77;;
32080;SDS011;18593;51.426;7.030;2022-12-01T11:21:47;51.60;;;25.17;;
32080;SDS011;18593;51.426;7.030;2022-12-01T11:24:18;54.90;;;26.10;;
32080;SDS011;18593;51.426;7.030;2022-12-01T11:26:53;55.53;;;26.75;;
32080;SDS011;18593;51.426;7.030;2022-12-01T11:29:23;54.53;;;25.92;;
32080;SDS011;18593;51.426;7.030;2022-12-01T11:31:56;52.55;;;26.30;;
32080;SDS011;18593;51.426;7.030;2022-12-01T11:34:26;53.63;;;26.05;;
32080;SDS011;18593;51.426;7.030;2022-12-01T11:36:55;59.70;;;29.20;;
32080;SDS011;18593;51.426;7.030;2022-12-01T11:39:24;60.53;;;28.90;;
32080;SDS011;18593;51.426;7.030;2022-12-01T11:41:53;68.20;;;30.75;;
32080;SDS011;18593;51.426;7.030;2022-12-01T11:44:22;56.83;;;29.00;;
32080;SDS011;18593;51.426;7.030;2022-12-01T11:46:49;57.88;;;28.98;;
32080;SDS011;18593;51.426;7.030;2022-12-01T11:49:17;58.05;;;30.27;;
32080;SDS011;18593;51.426;7.030;2022-12-01T11:51:46;59.33;;;29.88;;
32080;SDS011;18593;51.426;7.030;2022-12-01T11:54:14;63.40;;;29.73;;
32080;SDS011;18593;51.426;7.030;2022-12-01T11:56:43;67.47;;;32.35;;
32080;SDS011;18593;51.426;7.030;2022-12-01T11:59:14;63.70;;;31.30;;
32080;SDS011;18593;51.426;7.030;2022-12-01T12:01:46;68.13;;;32.95;;
32080;SDS011;18593;51.426;7.030;2022-12-01T12:04:23;64.15;;;32.00;;
32080;SDS011;18593;51.426;7.030;2022-12-01T12:06:58;69.07;;;32.15;;
32080;SDS011;18593;51.426;7.030;2022-12-01T12:12:26;65.03;;;31.67;;
32080;SDS011;18593;51.426;7.030;2022-12-01T12:15:03;72.78;;;34.97;;
32080;SDS011;18593;51.426;7.030;2022-12-01T12:20:36;67.28;;;33.45;;
32080;SDS011;18593;51.426;7.030;2022-12-01T12:23:14;73.57;;;35.72;;
32080;SDS011;18593;51.426;7.030;2022-12-01T12:25:54;71.45;;;35.10;;
32080;SDS011;18593;51.426;7.030;2022-12-01T12:28:31;71.28;;;35.38;;
32080;SDS011;18593;51.426;7.030;2022-12-01T12:31:12;69.90;;;34.03;;
32080;SDS011;18593;51.426;7.030;2022-12-01T12:33:46;73.95;;;34.72;;
32080;SDS011;18593;51.426;7.030;2022-12-01T12:36:31;79.32;;;36.63;;
32080;SDS011;18593;51.426;7.030;2022-12-01T12:39:09;76.97;;;36.40;;
32080;SDS011;18593;51.426;7.030;2022-12-01T12:41:49;78.28;;;36.80;;
32080;SDS011;18593;51.426;7.030;2022-12-01T12:44:25;76.35;;;36.15;;
32080;SDS011;18593;51.426;7.030;2022-12-01T12:47:01;86.78;;;39.97;;
32080;SDS011;18593;51.426;7.030;2022-12-01T12:49:36;88.38;;;41.65;;
32080;SDS011;18593;51.426;7.030;2022-12-01T12:52:06;89.35;;;39.42;;
32080;SDS011;18593;51.426;7.030;2022-12-01T12:57:17;86.28;;;37.72;;
32080;SDS011;18593;51.426;7.030;2022-12-01T12:59:47;85.32;;;39.88;;
32080;SDS011;18593;51.426;7.030;2022-12-01T13:02:18;88.97;;;40.78;;
32080;SDS011;18593;51.426;7.030;2022-12-01T13:04:49;93.13;;;42.28;;
32080;SDS011;18593;51.426;7.030;2022-12-01T13:07:27;90.32;;;42.05;;
32080;SDS011;18593;51.426;7.030;2022-12-01T13:09:59;92.95;;;41.88;;
32080;SDS011;18593;51.426;7.030;2022-12-01T13:12:31;92.88;;;41.83;;
32080;SDS011;18593;51.426;7.030;2022-12-01T13:15:02;85.22;;;40.35;;
32080;SDS011;18593;51.426;7.030;2022-12-01T13:20:00;85.70;;;39.85;;
32080;SDS011;18593;51.426;7.030;2022-12-01T13:22:28;88.22;;;39.92;;
32080;SDS011;18593;51.426;7.030;2022-12-01T13:24:59;85.10;;;40.10;;
32080;SDS011;18593;51.426;7.030;2022-12-01T13:27:27;93.75;;;42.92;;
32080;SDS011;18593;51.426;7.030;2022-12-01T13:29:57;87.85;;;40.55;;
32080;SDS011;18593;51.426;7.030;2022-12-01T13:32:30;88.63;;;43.17;;
32080;SDS011;18593;51.426;7.030;2022-12-01T13:34:59;84.97;;;41.17;;
32080;SDS011;18593;51.426;7.030;2022-12-01T13:37:28;85.82;;;40.50;;
32080;SDS011;18593;51.426;7.030;2022-12-01T13:40:05;85.18;;;40.72;;
32080;SDS011;18593;51.426;7.030;2022-12-01T13:42:34;90.15;;;40.90;;
32080;SDS011;18593;51.426;7.030;2022-12-01T13:45:06;89.13;;;43.08;;
32080;SDS011;18593;51.426;7.030;2022-12-01T13:47:39;89.47;;;41.85;;
32080;SDS011;18593;51.426;7.030;2022-12-01T13:53:23;86.50;;;39.83;;
32080;SDS011;18593;51.426;7.030;2022-12-01T13:55:55;84.15;;;40.70;;
32080;SDS011;18593;51.426;7.030;2022-12-01T13:58:25;81.72;;;38.92;;
32080;SDS011;18593;51.426;7.030;2022-12-01T14:04:29;81.10;;;39.22;;
32080;SDS011;18593;51.426;7.030;2022-12-01T14:07:12;86.38;;;40.85;;
32080;SDS011;18593;51.426;7.030;2022-12-01T14:09:42;96.32;;;44.25;;
32080;SDS011;18593;51.426;7.030;2022-12-01T14:12:14;88.50;;;40.80;;
32080;SDS011;18593;51.426;7.030;2022-12-01T14:14:45;80.70;;;40.58;;
32080;SDS011;18593;51.426;7.030;2022-12-01T14:17:24;86.40;;;41.40;;
32080;SDS011;18593;51.426;7.030;2022-12-01T14:19:53;82.43;;;41.10;;
32080;SDS011;18593;51.426;7.030;2022-12-01T14:22:32;84.20;;;40.38;;
32080;SDS011;18593;51.426;7.030;2022-12-01T14:25:00;84.72;;;39.97;;
32080;SDS011;18593;51.426;7.030;2022-12-01T14:27:35;81.85;;;40.05;;
32080;SDS011;18593;51.426;7.030;2022-12-01T14:33:39;81.60;;;40.15;;
32080;SDS011;18593;51.426;7.030;2022-12-01T14:36:20;89.40;;;41.83;;
32080;SDS011;18593;51.426;7.030;2022-12-01T14:39:04;86.05;;;40.97;;
32080;SDS011;18593;51.426;7.030;2022-12-01T14:41:37;88.68;;;42.03;;
32080;SDS011;18593;51.426;7.030;2022-12-01T14:44:12;92.45;;;42.72;;
32080;SDS011;18593;51.426;7.030;2022-12-01T14:46:50;91.15;;;42.03;;
32080;SDS011;18593;51.426;7.030;2022-12-01T14:49:20;86.95;;;41.72;;
32080;SDS011;18593;51.426;7.030;2022-12-01T14:51:50;91.22;;;44.28;;
32080;SDS011;18593;51.426;7.030;2022-12-01T14:54:21;92.20;;;43.03;;
32080;SDS011;18593;51.426;7.030;2022-12-01T14:56:51;87.03;;;41.17;;
32080;SDS011;18593;51.426;7.030;2022-12-01T14:59:24;84.53;;;41.50;;
32080;SDS011;18593;51.426;7.030;2022-12-01T15:01:52;89.35;;;41.85;;
32080;SDS011;18593;51.426;7.030;2022-12-01T15:04:24;88.47;;;41.33;;
32080;SDS011;18593;51.426;7.030;2022-12-01T15:06:52;84.43;;;41.78;;